createdAt,value
2023-04-08T00:01:13.864Z,6.78
2023-04-08T00:06:18.193Z,6.68
2023-04-08T00:11:21.307Z,6.80
2023-04-08T00:16:24.382Z,6.62
2023-04-08T00:21:27.531Z,6.63
2023-04-08T00:26:31.147Z,6.68
2023-04-08T00:31:34.045Z,6.60
2023-04-08T00:36:37.031Z,6.41
2023-04-08T00:41:40.217Z,6.48
2023-04-08T00:46:43.507Z,6.35
2023-04-08T00:51:46.591Z,6.33
2023-04-08T00:56:49.554Z,6.25
2023-04-08T01:02:26.009Z,6.13
2023-04-08T01:07:33.253Z,6.07
2023-04-08T01:12:44.239Z,6.11
2023-04-08T01:17:48.628Z,6.06
2023-04-08T01:23:00.725Z,6.08
2023-04-08T01:28:18.275Z,6.05
2023-04-08T01:33:22.702Z,5.84
2023-04-08T01:38:29.619Z,5.79
2023-04-08T01:43:35.357Z,5.84
2023-04-08T01:48:41.925Z,5.58
2023-04-08T01:53:45.102Z,5.36
2023-04-08T01:58:52.926Z,5.36
2023-04-08T02:03:58.322Z,5.20
2023-04-08T02:09:02.638Z,5.28
2023-04-08T02:14:06.218Z,5.15
2023-04-08T02:19:26.320Z,5.08
2023-04-08T02:24:30.779Z,5.11
2023-04-08T02:29:36.939Z,5.04
2023-04-08T02:34:42.297Z,5.14
2023-04-08T02:39:45.349Z,5.15
2023-04-08T02:44:49.094Z,5.16
2023-04-08T02:49:53.946Z,5.03
2023-04-08T02:54:56.849Z,5.11
2023-04-08T02:59:59.746Z,5.24
2023-04-08T03:05:03.010Z,5.43
2023-04-08T03:10:06.962Z,5.44
2023-04-08T03:15:10.282Z,5.77
2023-04-08T03:20:13.240Z,5.90
2023-04-08T03:25:16.499Z,5.95
2023-04-08T03:30:19.489Z,5.95
2023-04-08T03:35:22.978Z,6.14
2023-04-08T03:40:25.871Z,6.54
2023-04-08T03:45:29.046Z,6.60
2023-04-08T03:50:32.004Z,6.77
2023-04-08T03:55:34.895Z,7.02
2023-04-08T04:00:37.808Z,7.97
2023-04-08T04:05:41.008Z,8.67
2023-04-08T04:10:44.027Z,9.52
2023-04-08T04:15:47.164Z,9.96
2023-04-08T04:20:50.116Z,10.46
2023-04-08T04:25:53.169Z,10.75
2023-04-08T04:30:56.754Z,10.75
2023-04-08T04:36:02.906Z,11.34
2023-04-08T04:41:06.171Z,11.61
2023-04-08T04:46:09.417Z,11.70
2023-04-08T04:51:12.476Z,11.84
2023-04-08T04:56:16.035Z,12.29
2023-04-08T05:01:18.960Z,12.03
2023-04-08T05:06:23.893Z,12.22
2023-04-08T05:11:26.856Z,12.41
2023-04-08T05:16:29.757Z,12.66
2023-04-08T05:21:33.095Z,12.92
2023-04-08T05:26:38.036Z,12.48
2023-04-08T05:31:41.211Z,13.09
2023-04-08T05:36:44.476Z,13.07
2023-04-08T05:41:47.667Z,13.54
2023-04-08T05:46:50.714Z,13.52
2023-04-08T05:51:53.800Z,13.57
2023-04-08T05:56:56.716Z,13.89
2023-04-08T06:01:59.770Z,13.71
2023-04-08T06:07:04.283Z,13.68
2023-04-08T06:12:07.371Z,14.06
2023-04-08T06:17:10.557Z,14.37
2023-04-08T06:22:13.533Z,13.93
2023-04-08T06:27:16.826Z,13.80
2023-04-08T06:32:19.996Z,14.03
2023-04-08T06:37:22.989Z,14.25
2023-04-08T06:42:26.142Z,14.16
2023-04-08T06:47:48.096Z,14.42
2023-04-08T06:52:51.296Z,13.72
2023-04-08T06:57:54.283Z,14.20
2023-04-08T07:02:57.321Z,14.37
2023-04-08T07:08:00.315Z,14.38
2023-04-08T07:13:03.496Z,15.10
2023-04-08T07:18:06.506Z,14.51
2023-04-08T07:23:09.828Z,13.90
2023-04-08T07:28:13.132Z,13.75
2023-04-08T07:33:16.538Z,13.73
2023-04-08T07:38:19.512Z,13.47
2023-04-08T07:43:22.627Z,13.78
2023-04-08T07:48:25.654Z,13.88
2023-04-08T07:53:28.852Z,13.69
2023-04-08T07:58:32.599Z,13.49
2023-04-08T08:03:35.919Z,13.09
2023-04-08T08:08:38.943Z,13.18
2023-04-08T08:13:42.049Z,13.15
2023-04-08T08:18:45.188Z,13.17
2023-04-08T08:23:48.311Z,13.18
2023-04-08T08:28:51.480Z,13.25
2023-04-08T08:33:54.425Z,13.24
2023-04-08T08:38:57.430Z,13.17
2023-04-08T08:44:01.050Z,13.32
2023-04-08T08:49:04.069Z,13.25
2023-04-08T08:54:07.059Z,13.42
2023-04-08T08:59:10.587Z,13.46
2023-04-08T09:04:18.771Z,13.72
2023-04-08T09:09:22.045Z,13.70
2023-04-08T09:14:26.449Z,13.47
2023-04-08T09:19:29.396Z,13.77
2023-04-08T09:24:32.492Z,13.46
2023-04-08T09:29:37.457Z,13.50
2023-04-08T09:34:42.323Z,13.84
2023-04-08T09:39:45.556Z,13.25
2023-04-08T09:44:48.674Z,13.60
2023-04-08T09:50:03.422Z,13.37
2023-04-08T09:55:10.064Z,13.50
2023-04-08T10:00:17.722Z,13.33
2023-04-08T10:05:21.569Z,13.49
2023-04-08T10:10:25.309Z,13.36
2023-04-08T10:15:31.266Z,13.33
2023-04-08T10:20:37.699Z,13.24
2023-04-08T10:25:45.487Z,13.29
2023-04-08T10:30:57.839Z,13.22
2023-04-08T10:36:11.711Z,13.21
2023-04-08T10:41:24.110Z,13.02
2023-04-08T10:46:29.965Z,13.21
2023-04-08T10:51:34.616Z,13.15
2023-04-08T10:56:48.043Z,13.00
2023-04-08T11:01:51.276Z,12.90
2023-04-08T11:06:54.289Z,12.76
2023-04-08T11:11:57.397Z,12.58
2023-04-08T11:17:01.884Z,12.69
2023-04-08T11:22:06.930Z,12.55
2023-04-08T11:27:10.188Z,12.63
2023-04-08T11:32:13.288Z,12.53
2023-04-08T11:37:16.553Z,12.39
2023-04-08T11:42:30.221Z,12.27
2023-04-08T11:47:34.151Z,12.38
2023-04-08T11:52:50.626Z,12.14
2023-04-08T11:57:55.711Z,12.04
2023-04-08T12:02:59.101Z,12.10
2023-04-08T12:08:02.686Z,11.96
2023-04-08T12:13:05.728Z,11.48
2023-04-08T12:18:08.790Z,11.56
2023-04-08T12:23:11.793Z,11.48
2023-04-08T12:28:14.815Z,11.18
2023-04-08T12:33:17.782Z,11.27
2023-04-08T12:38:20.885Z,11.25
2023-04-08T12:43:24.841Z,11.10
2023-04-08T12:48:28.210Z,10.68
2023-04-08T12:53:31.910Z,10.61
2023-04-08T12:58:35.137Z,10.40
2023-04-08T13:03:38.358Z,10.41
2023-04-08T13:08:41.705Z,10.29
2023-04-08T13:13:46.737Z,10.20
2023-04-08T13:18:50.068Z,10.07
2023-04-08T13:23:53.179Z,9.79
2023-04-08T13:28:57.992Z,9.81
2023-04-08T13:34:01.506Z,9.58
2023-04-08T13:39:04.564Z,9.48
2023-04-08T13:44:07.620Z,9.38
2023-04-08T13:49:11.287Z,9.46
2023-04-08T13:54:14.228Z,9.23
2023-04-08T13:59:17.233Z,9.03
2023-04-08T14:04:22.065Z,8.83
2023-04-08T14:09:25.123Z,8.83
2023-04-08T14:14:28.112Z,8.68
2023-04-08T14:19:31.200Z,8.55
2023-04-08T14:24:34.834Z,8.64
2023-04-08T14:29:38.000Z,8.43
2023-04-08T14:34:41.006Z,8.49
2023-04-08T14:39:45.014Z,8.44
2023-04-08T14:44:48.289Z,8.24
2023-04-08T14:49:51.555Z,8.06
2023-04-08T14:54:54.523Z,8.03
2023-04-08T14:59:57.563Z,8.00
2023-04-08T15:05:00.819Z,7.94
2023-04-08T15:10:03.825Z,7.91
2023-04-08T15:15:07.492Z,7.84
2023-04-08T15:20:10.874Z,7.79
2023-04-08T15:25:13.989Z,7.69
2023-04-08T15:30:17.518Z,7.67
2023-04-08T15:35:20.490Z,7.50
2023-04-08T15:40:23.459Z,7.53
2023-04-08T15:45:26.960Z,7.49
2023-04-08T15:50:30.554Z,7.39
2023-04-08T15:55:39.008Z,7.28
2023-04-08T16:00:42.442Z,7.18
2023-04-08T16:05:45.453Z,7.25
2023-04-08T16:10:48.974Z,7.25
2023-04-08T16:15:52.224Z,7.10
2023-04-08T16:20:55.945Z,7.11
2023-04-08T16:25:59.094Z,7.01
2023-04-08T16:31:02.607Z,7.02
2023-04-08T16:36:05.906Z,6.97
2023-04-08T16:41:10.380Z,6.92
2023-04-08T16:46:16.545Z,6.64
2023-04-08T16:51:19.634Z,6.71
2023-04-08T16:56:22.732Z,6.48
2023-04-08T17:01:26.071Z,6.37
2023-04-08T17:06:29.306Z,6.22
2023-04-08T17:11:32.412Z,6.23
2023-04-08T17:16:36.108Z,6.11
2023-04-08T17:21:39.150Z,6.00
2023-04-08T17:26:42.959Z,5.92
2023-04-08T17:31:45.878Z,5.85
2023-04-08T17:36:48.978Z,5.74
2023-04-08T17:41:52.309Z,5.62
2023-04-08T17:46:58.377Z,5.69
2023-04-08T17:52:01.337Z,5.50
2023-04-08T17:57:04.451Z,5.61
2023-04-08T18:02:07.644Z,5.48
2023-04-08T18:07:10.861Z,5.48
2023-04-08T18:12:13.897Z,5.38
2023-04-08T18:17:16.924Z,5.41
2023-04-08T18:22:21.095Z,5.31
2023-04-08T18:27:24.111Z,5.36
2023-04-08T18:32:27.360Z,5.38
2023-04-08T18:37:31.550Z,5.36
2023-04-08T18:42:34.508Z,5.32
2023-04-08T18:47:38.148Z,5.23
2023-04-08T18:52:41.223Z,5.33
2023-04-08T18:57:45.073Z,5.34
2023-04-08T19:02:48.105Z,5.30
2023-04-08T19:07:51.359Z,5.28
2023-04-08T19:12:54.322Z,5.25
2023-04-08T19:17:57.565Z,5.01
2023-04-08T19:23:00.645Z,5.05
2023-04-08T19:28:05.833Z,5.08
2023-04-08T19:33:09.236Z,4.96
2023-04-08T19:38:12.889Z,5.06
2023-04-08T19:43:16.930Z,4.93
2023-04-08T19:48:21.036Z,5.01
2023-04-08T19:53:23.993Z,4.85
2023-04-08T19:58:27.539Z,4.90
2023-04-08T20:03:30.772Z,4.90
2023-04-08T20:08:34.995Z,4.84
2023-04-08T20:13:38.061Z,4.79
2023-04-08T20:18:41.275Z,4.79
2023-04-08T20:23:44.787Z,4.67
2023-04-08T20:28:48.419Z,4.73
2023-04-08T20:33:51.478Z,4.73
2023-04-08T20:38:55.530Z,4.70
2023-04-08T20:43:58.544Z,4.65
2023-04-08T20:49:02.377Z,4.62
2023-04-08T20:54:05.462Z,4.58
2023-04-08T20:59:08.779Z,4.58
2023-04-08T21:04:11.718Z,4.67
2023-04-08T21:09:15.302Z,4.63
2023-04-08T21:14:18.255Z,4.43
2023-04-08T21:19:21.236Z,4.41
2023-04-08T21:24:24.215Z,4.32
2023-04-08T21:29:27.164Z,4.24
2023-04-08T21:34:30.104Z,4.17
2023-04-08T21:39:33.084Z,4.13
2023-04-08T21:44:36.127Z,4.14
2023-04-08T21:49:39.099Z,4.04
2023-04-08T21:54:42.039Z,4.04
2023-04-08T21:59:45.296Z,3.99
2023-04-08T22:04:49.343Z,4.01
2023-04-08T22:09:54.825Z,3.95
2023-04-08T22:14:58.083Z,4.07
2023-04-08T22:20:01.108Z,4.11
2023-04-08T22:25:04.449Z,4.20
2023-04-08T22:30:08.089Z,4.18
2023-04-08T22:35:11.029Z,4.21
2023-04-08T22:40:15.143Z,4.23
2023-04-08T22:45:18.121Z,4.18
2023-04-08T22:50:22.168Z,4.11
2023-04-08T22:55:25.112Z,4.07
2023-04-08T23:00:29.634Z,4.13
2023-04-08T23:05:32.838Z,4.18
2023-04-08T23:10:35.810Z,4.13
2023-04-08T23:15:38.973Z,4.19
2023-04-08T23:20:43.281Z,4.14
2023-04-08T23:25:46.377Z,4.19
2023-04-08T23:30:50.014Z,4.04
2023-04-08T23:35:53.193Z,4.12
2023-04-08T23:40:56.358Z,4.06
2023-04-08T23:45:59.400Z,3.99
2023-04-08T23:51:02.251Z,3.96
2023-04-08T23:56:06.819Z,3.89
